createdAt,value
2022-12-08T00:01:30.670Z,100535.34
2022-12-08T00:03:59.430Z,100531.03
2022-12-08T00:06:48.368Z,100534.41
2022-12-08T00:09:24.888Z,100523.28
2022-12-08T00:11:55.255Z,100527.59
2022-12-08T00:14:25.460Z,100525.97
2022-12-08T00:16:53.324Z,100514.84
2022-12-08T00:19:21.445Z,100525.97
2022-12-08T00:21:51.264Z,100512.31
2022-12-08T00:24:19.796Z,100512.31
2022-12-08T00:26:47.866Z,100510.59
2022-12-08T00:29:17.552Z,100517.47
2022-12-08T00:31:45.670Z,100507.22
2022-12-08T00:34:13.479Z,100504.63
2022-12-08T00:36:41.177Z,100508.94
2022-12-08T00:39:10.507Z,100501.25
2022-12-08T00:41:55.561Z,100497.81
2022-12-08T00:44:23.267Z,100502.09
2022-12-08T00:46:51.183Z,100495.28
2022-12-08T00:49:19.230Z,100482.44
2022-12-08T00:51:47.023Z,100473.06
2022-12-08T00:54:16.131Z,100469.63
2022-12-08T00:56:44.390Z,100475.59
2022-12-08T00:59:12.008Z,100478.19
2022-12-08T01:01:39.922Z,100467.94
2022-12-08T01:04:11.579Z,100467.91
2022-12-08T01:06:40.530Z,100468.75
2022-12-08T01:09:08.997Z,100462.78
2022-12-08T01:11:38.151Z,100455.13
2022-12-08T01:14:05.864Z,100460.25
2022-12-08T01:16:36.092Z,100467.06
2022-12-08T01:19:04.815Z,100451.72
2022-12-08T01:21:32.658Z,100457.69
2022-12-08T01:24:02.676Z,100463.66
2022-12-08T01:26:30.586Z,100460.22
2022-12-08T01:28:59.810Z,100456.81
2022-12-08T01:31:27.627Z,100462.78
2022-12-08T01:33:55.462Z,100472.19
2022-12-08T01:36:25.293Z,100445.72
2022-12-08T01:38:53.794Z,100440.56
2022-12-08T01:41:24.369Z,100449.97
2022-12-08T01:44:02.055Z,100444.88
2022-12-08T01:46:31.707Z,100458.53
2022-12-08T01:49:04.321Z,100444.88
2022-12-08T01:51:36.150Z,100458.53
2022-12-08T01:54:06.083Z,100398.75
2022-12-08T01:56:38.799Z,100442.31
2022-12-08T01:59:08.537Z,100419.25
2022-12-08T02:01:36.604Z,100446.56
2022-12-08T02:04:05.399Z,100449.09
2022-12-08T02:06:37.280Z,100453.41
2022-12-08T02:09:06.930Z,100449.13
2022-12-08T02:11:35.069Z,100434.59
2022-12-08T02:14:05.329Z,100445.72
2022-12-08T02:16:43.377Z,100444.88
2022-12-08T02:19:42.598Z,100426.91
2022-12-08T02:22:15.376Z,100433.78
2022-12-08T02:24:51.924Z,100426.06
2022-12-08T02:27:41.160Z,100415.78
2022-12-08T02:30:24.805Z,100415.81
2022-12-08T02:33:44.311Z,100417.56
2022-12-08T02:36:22.191Z,100410.69
2022-12-08T02:39:01.287Z,100404.66
2022-12-08T02:41:39.601Z,100403.03
2022-12-08T02:44:14.830Z,100386.78
2022-12-08T02:46:48.427Z,100393.63
2022-12-08T02:49:16.727Z,100388.50
2022-12-08T02:51:45.859Z,100405.59
2022-12-08T02:54:14.421Z,100396.19
2022-12-08T02:57:01.551Z,100397.91
2022-12-08T02:59:45.564Z,100333.00
2022-12-08T03:02:32.003Z,100403.88
2022-12-08T03:05:06.449Z,100403.00
2022-12-08T03:07:41.097Z,100393.66
2022-12-08T03:10:13.358Z,100396.19
2022-12-08T03:12:45.181Z,100384.22
2022-12-08T03:15:19.376Z,100382.50
2022-12-08T03:17:52.976Z,100380.81
2022-12-08T03:20:22.898Z,100381.69
2022-12-08T03:22:55.386Z,100374.84
2022-12-08T03:25:25.202Z,100363.75
2022-12-08T03:27:53.437Z,100365.44
2022-12-08T03:30:21.704Z,100373.09
2022-12-08T03:32:55.152Z,100367.97
2022-12-08T03:35:25.838Z,100373.13
2022-12-08T03:38:03.656Z,100362.88
2022-12-08T03:40:31.446Z,100361.19
2022-12-08T03:42:59.139Z,100288.66
2022-12-08T03:45:26.963Z,100357.78
2022-12-08T03:48:08.741Z,100352.66
2022-12-08T03:50:36.495Z,100350.94
2022-12-08T03:53:05.583Z,100331.31
2022-12-08T03:55:33.254Z,100353.50
2022-12-08T03:58:00.958Z,100356.91
2022-12-08T04:00:28.659Z,100356.06
2022-12-08T04:02:56.460Z,100362.00
2022-12-08T04:05:24.275Z,100358.56
2022-12-08T04:07:51.994Z,100352.66
2022-12-08T04:10:21.149Z,100354.31
2022-12-08T04:12:48.875Z,100350.06
2022-12-08T04:15:16.681Z,100356.84
2022-12-08T04:17:44.390Z,100334.72
2022-12-08T04:20:12.902Z,100342.41
2022-12-08T04:22:40.616Z,100343.25
2022-12-08T04:25:08.861Z,100343.25
2022-12-08T04:27:37.948Z,100344.13
2022-12-08T04:30:07.115Z,100342.38
2022-12-08T04:32:35.156Z,100344.91
2022-12-08T04:35:02.971Z,100343.22
2022-12-08T04:37:30.804Z,100326.16
2022-12-08T04:39:58.667Z,100332.13
2022-12-08T04:42:26.413Z,100336.41
2022-12-08T04:44:55.477Z,100332.16
2022-12-08T04:47:23.173Z,100332.16
2022-12-08T04:49:50.934Z,100320.22
2022-12-08T04:52:18.638Z,100324.47
2022-12-08T04:54:46.421Z,100313.41
2022-12-08T04:57:14.168Z,100293.75
2022-12-08T04:59:41.983Z,100299.75
2022-12-08T05:02:11.158Z,100292.06
2022-12-08T05:04:39.624Z,100298.88
2022-12-08T05:07:07.597Z,100298.91
2022-12-08T05:09:35.355Z,100309.97
2022-12-08T05:12:03.381Z,100315.09
2022-12-08T05:14:31.072Z,100315.94
2022-12-08T05:16:58.801Z,100308.25
2022-12-08T05:19:27.878Z,100308.28
2022-12-08T05:21:55.554Z,100304.84
2022-12-08T05:24:23.349Z,100296.34
2022-12-08T05:26:51.063Z,100293.75
2022-12-08T05:29:18.854Z,100292.06
2022-12-08T05:31:46.715Z,100292.06
2022-12-08T05:34:14.531Z,100293.72
2022-12-08T05:36:43.651Z,100308.25
2022-12-08T05:39:13.481Z,100297.97
2022-12-08T05:41:41.630Z,100300.56
2022-12-08T05:44:10.114Z,100309.09
2022-12-08T05:46:38.147Z,100313.41
2022-12-08T05:49:05.878Z,100308.28
2022-12-08T05:51:33.712Z,100319.34
2022-12-08T05:54:02.940Z,100316.78
2022-12-08T05:56:30.656Z,100308.28
2022-12-08T05:58:58.420Z,100307.41
2022-12-08T06:01:28.515Z,100304.00
2022-12-08T06:03:57.851Z,100313.41
2022-12-08T06:06:25.850Z,100325.34
2022-12-08T06:08:54.043Z,100316.81
2022-12-08T06:11:24.795Z,100325.31
2022-12-08T06:13:53.236Z,100328.72
2022-12-08T06:16:21.115Z,100329.59
2022-12-08T06:18:48.837Z,100311.66
2022-12-08T06:21:17.725Z,100310.81
2022-12-08T06:23:45.729Z,100320.19
2022-12-08T06:26:15.799Z,100321.88
2022-12-08T06:28:45.029Z,100319.31
2022-12-08T06:31:15.555Z,100319.25
2022-12-08T06:33:43.427Z,100316.78
2022-12-08T06:36:13.137Z,100323.53
2022-12-08T06:38:43.536Z,100320.16
2022-12-08T06:41:12.073Z,100320.19
2022-12-08T06:43:40.891Z,100318.47
2022-12-08T06:46:12.145Z,100321.03
2022-12-08T06:48:39.951Z,100312.53
2022-12-08T06:51:09.667Z,100321.91
2022-12-08T06:53:37.508Z,100326.19
2022-12-08T06:56:05.832Z,100328.72
2022-12-08T06:58:34.899Z,100329.59
2022-12-08T07:01:06.387Z,100326.19
2022-12-08T07:03:35.685Z,100332.16
2022-12-08T07:06:04.322Z,100325.31
2022-12-08T07:08:33.361Z,100334.72
2022-12-08T07:11:06.932Z,100288.63
2022-12-08T07:13:34.845Z,100335.59
2022-12-08T07:16:02.531Z,100332.16
2022-12-08T07:18:30.219Z,100333.84
2022-12-08T07:21:04.348Z,100338.97
2022-12-08T07:23:32.823Z,100325.31
2022-12-08T07:26:03.223Z,100256.19
2022-12-08T07:28:31.883Z,100323.59
2022-12-08T07:30:59.941Z,100329.59
2022-12-08T07:33:27.815Z,100316.81
2022-12-08T07:35:56.317Z,100321.91
2022-12-08T07:38:26.440Z,100322.75
2022-12-08T07:40:54.821Z,100324.44
2022-12-08T07:43:23.415Z,100317.59
2022-12-08T07:45:51.821Z,100325.25
2022-12-08T07:48:19.696Z,100326.97
2022-12-08T07:50:48.454Z,100327.78
2022-12-08T07:53:16.399Z,100332.06
2022-12-08T07:55:45.761Z,100336.31
2022-12-08T07:58:13.700Z,100337.16
2022-12-08T08:00:41.552Z,100336.25
2022-12-08T08:03:11.452Z,100332.03
2022-12-08T08:05:39.220Z,100331.19
2022-12-08T08:08:07.047Z,100342.25
2022-12-08T08:10:34.934Z,100343.97
2022-12-08T08:13:03.966Z,100338.81
2022-12-08T08:15:31.874Z,100332.91
2022-12-08T08:17:59.678Z,100347.53
2022-12-08T08:20:28.031Z,100361.97
2022-12-08T08:22:55.858Z,100346.53
2022-12-08T08:25:23.804Z,100333.81
2022-12-08T08:27:51.831Z,100342.34
2022-12-08T08:30:21.376Z,100338.94
2022-12-08T08:32:49.590Z,100346.53
2022-12-08T08:35:17.580Z,100347.41
2022-12-08T08:37:48.849Z,100280.91
2022-12-08T08:40:17.487Z,100347.34
2022-12-08T08:42:45.184Z,100343.16
2022-12-08T08:45:13.283Z,100331.09
2022-12-08T08:47:42.473Z,100339.63
2022-12-08T08:50:10.632Z,100330.16
2022-12-08T08:52:38.519Z,100345.56
2022-12-08T08:55:07.054Z,100343.16
2022-12-08T08:57:34.811Z,100332.06
2022-12-08T09:00:02.903Z,100342.34
2022-12-08T09:02:30.900Z,100333.00
2022-12-08T09:05:00.190Z,100347.47
2022-12-08T09:07:28.045Z,100345.72
2022-12-08T09:10:01.396Z,100344.03
2022-12-08T09:12:29.796Z,100352.63
2022-12-08T09:14:57.502Z,100350.84
2022-12-08T09:17:25.251Z,100350.81
2022-12-08T09:19:53.010Z,100356.84
2022-12-08T09:22:22.069Z,100342.38
2022-12-08T09:24:49.874Z,100354.28
2022-12-08T09:27:17.574Z,100348.31
2022-12-08T09:29:45.377Z,100350.94
2022-12-08T09:32:13.099Z,100356.91
2022-12-08T09:34:40.864Z,100368.88
2022-12-08T09:37:08.975Z,100361.97
2022-12-08T09:39:38.106Z,100364.50
2022-12-08T09:42:07.871Z,100375.47
2022-12-08T09:44:51.681Z,100372.06
2022-12-08T09:47:22.970Z,100378.91
2022-12-08T09:49:59.611Z,100378.06
2022-12-08T09:52:31.204Z,100374.66
2022-12-08T09:55:04.396Z,100370.50
2022-12-08T09:57:32.773Z,100371.22
2022-12-08T10:00:05.966Z,100373.75
2022-12-08T10:02:34.090Z,100386.44
2022-12-08T10:05:01.922Z,100378.72
2022-12-08T10:07:40.003Z,100379.66
2022-12-08T10:10:22.265Z,100377.09
2022-12-08T10:12:55.253Z,100358.19
2022-12-08T10:15:41.359Z,100385.91
2022-12-08T10:18:15.867Z,100377.31
2022-12-08T10:20:45.303Z,100373.31
2022-12-08T10:23:23.690Z,100367.28
2022-12-08T10:25:59.717Z,100378.41
2022-12-08T10:28:27.485Z,100376.31
2022-12-08T10:30:55.362Z,100382.03
2022-12-08T10:33:24.068Z,100373.50
2022-12-08T10:35:53.304Z,100376.22
2022-12-08T10:38:24.821Z,100386.69
2022-12-08T10:41:00.353Z,100394.44
2022-12-08T10:43:28.871Z,100392.63
2022-12-08T10:46:08.605Z,100392.75
2022-12-08T10:48:36.395Z,100393.53
2022-12-08T10:51:05.661Z,100390.81
2022-12-08T10:53:34.516Z,100385.69
2022-12-08T10:56:16.437Z,100381.47
2022-12-08T10:58:45.633Z,100370.31
2022-12-08T11:01:15.783Z,100379.75
2022-12-08T11:03:47.807Z,100383.91
2022-12-08T11:06:19.732Z,100387.31
2022-12-08T11:08:51.419Z,100377.22
2022-12-08T11:11:27.564Z,100387.44
2022-12-08T11:13:57.440Z,100381.28
2022-12-08T11:16:25.275Z,100387.13
2022-12-08T11:18:57.790Z,100379.75
2022-12-08T11:21:36.897Z,100376.22
2022-12-08T11:24:23.180Z,100387.91
2022-12-08T11:26:55.563Z,100377.66
2022-12-08T11:29:23.512Z,100376.78
2022-12-08T11:31:55.036Z,100378.72
2022-12-08T11:34:33.161Z,100378.63
2022-12-08T11:37:00.969Z,100384.84
2022-12-08T11:39:33.302Z,100379.69
2022-12-08T11:42:08.065Z,100374.59
2022-12-08T11:44:43.395Z,100370.22
2022-12-08T11:47:16.375Z,100372.81
2022-12-08T11:52:22.230Z,100366.00
2022-12-08T11:54:56.284Z,100376.19
2022-12-08T11:57:27.976Z,100361.81
2022-12-08T11:59:58.189Z,100374.63
2022-12-08T12:02:28.946Z,100371.13
2022-12-08T12:05:02.117Z,100377.97
2022-12-08T12:07:56.008Z,100368.50
2022-12-08T12:10:47.764Z,100371.84
2022-12-08T12:13:33.608Z,100369.94
2022-12-08T12:16:35.750Z,100375.00
2022-12-08T12:19:06.261Z,100372.53
2022-12-08T12:21:39.222Z,100370.13
2022-12-08T12:24:11.260Z,100378.56
2022-12-08T12:26:50.195Z,100367.53
2022-12-08T12:29:23.753Z,100364.69
2022-12-08T12:31:56.136Z,100368.06
2022-12-08T12:34:28.183Z,100360.34
2022-12-08T12:36:58.920Z,100363.63
2022-12-08T12:39:30.352Z,100366.13
2022-12-08T12:42:00.790Z,100325.34
2022-12-08T12:44:43.446Z,100357.66
2022-12-08T12:47:16.082Z,100356.06
2022-12-08T12:50:05.587Z,100360.50
2022-12-08T12:52:44.474Z,100365.56
2022-12-08T12:55:43.131Z,100343.38
2022-12-08T12:58:38.098Z,100371.53
2022-12-08T13:01:56.487Z,100368.94
2022-12-08T13:04:37.882Z,100371.44
2022-12-08T13:07:06.067Z,100370.63
2022-12-08T13:09:38.124Z,100369.84
2022-12-08T13:12:11.326Z,100367.19
2022-12-08T13:14:46.643Z,100363.72
2022-12-08T13:17:18.539Z,100344.34
2022-12-08T13:19:52.077Z,100371.03
2022-12-08T13:22:57.176Z,100374.13
2022-12-08T13:26:02.214Z,100364.72
2022-12-08T13:28:31.459Z,100377.47
2022-12-08T13:31:00.177Z,100373.06
2022-12-08T13:33:32.144Z,100371.19
2022-12-08T13:36:14.451Z,100364.38
2022-12-08T13:38:46.096Z,100363.63
2022-12-08T13:41:18.853Z,100368.72
2022-12-08T13:44:31.158Z,100342.41
2022-12-08T13:54:03.419Z,100376.22
2022-12-08T13:56:51.474Z,100370.31
2022-12-08T13:58:21.349Z,100384.91
2022-12-08T14:01:01.541Z,100381.53
2022-12-08T14:03:29.751Z,100373.97
2022-12-08T14:06:13.668Z,100381.63
2022-12-08T14:09:06.712Z,100383.41
2022-12-08T14:11:36.677Z,100387.00
2022-12-08T14:14:07.252Z,100382.84
2022-12-08T14:16:39.476Z,100390.88
2022-12-08T14:19:19.319Z,100400.06
2022-12-08T14:21:57.341Z,100408.50
2022-12-08T14:24:27.696Z,100408.09
2022-12-08T14:26:57.684Z,100413.94
2022-12-08T14:29:39.795Z,100419.88
2022-12-08T14:32:21.058Z,100423.91
2022-12-08T14:34:54.925Z,100407.91
2022-12-08T14:37:23.876Z,100424.13
2022-12-08T14:39:53.850Z,100415.47
2022-12-08T14:42:24.779Z,100422.38
2022-12-08T14:45:02.131Z,100422.38
2022-12-08T14:47:32.255Z,100419.00
2022-12-08T14:50:00.637Z,100429.25
2022-12-08T14:52:29.397Z,100370.34
2022-12-08T14:54:59.938Z,100432.75
2022-12-08T14:57:36.304Z,100429.41
2022-12-08T15:00:12.235Z,100437.97
2022-12-08T15:02:46.467Z,100434.56
2022-12-08T15:05:18.030Z,100445.56
2022-12-08T15:07:51.308Z,100398.59
2022-12-08T15:10:25.127Z,100435.34
2022-12-08T15:13:08.807Z,100440.44
2022-12-08T15:15:51.431Z,100437.03
2022-12-08T15:18:22.089Z,100443.84
2022-12-08T15:20:52.162Z,100447.34
2022-12-08T15:23:27.509Z,100412.28
2022-12-08T15:25:57.386Z,100448.06
2022-12-08T15:28:30.219Z,100451.53
2022-12-08T15:30:59.096Z,100424.19
2022-12-08T15:33:26.947Z,100454.91
2022-12-08T15:35:54.732Z,100459.31
2022-12-08T15:38:25.403Z,100466.97
2022-12-08T15:40:53.618Z,100420.00
2022-12-08T15:43:23.755Z,100472.09
2022-12-08T15:45:58.986Z,100466.09
2022-12-08T15:48:29.890Z,100467.84
2022-12-08T15:50:58.220Z,100419.22
2022-12-08T15:53:25.970Z,100471.34
2022-12-08T15:56:25.922Z,100475.63
2022-12-08T15:58:59.606Z,100479.91
2022-12-08T16:01:28.009Z,100479.88
2022-12-08T16:09:38.353Z,100477.25
2022-12-08T16:12:24.892Z,100463.59
2022-12-08T16:17:42.592Z,100480.72
2022-12-08T16:20:16.898Z,100470.47
2022-12-08T16:23:03.130Z,100484.97
2022-12-08T16:26:00.066Z,100484.16
2022-12-08T16:28:52.738Z,100498.66
2022-12-08T16:31:15.819Z,100504.66
2022-12-08T16:33:45.632Z,100508.06
2022-12-08T16:36:13.628Z,100490.13
2022-12-08T16:38:41.342Z,100499.53
2022-12-08T16:41:33.043Z,100512.34
2022-12-08T16:44:04.004Z,100496.97
2022-12-08T16:46:33.664Z,100499.53
2022-12-08T16:49:01.544Z,100511.47
2022-12-08T16:51:29.454Z,100514.03
2022-12-08T16:54:00.561Z,100516.53
2022-12-08T16:56:33.085Z,100519.97
2022-12-08T16:59:01.960Z,100420.00
2022-12-08T17:01:29.990Z,100490.00
2022-12-08T17:06:47.093Z,100524.31
2022-12-08T17:09:14.823Z,100525.16
2022-12-08T17:11:43.911Z,100528.59
2022-12-08T17:14:12.651Z,100526.03
2022-12-08T17:16:41.154Z,100523.47
2022-12-08T17:19:10.353Z,100531.16
2022-12-08T17:21:38.065Z,100526.88
2022-12-08T17:24:06.017Z,100535.41
2022-12-08T17:26:33.774Z,100530.28
2022-12-08T17:29:02.432Z,100532.88
2022-12-08T17:31:31.778Z,100533.69
2022-12-08T17:34:00.506Z,100537.13
2022-12-08T17:36:29.748Z,100532.00
2022-12-08T17:39:00.305Z,100487.56
2022-12-08T17:41:28.244Z,100526.88
2022-12-08T17:43:55.918Z,100538.84
2022-12-08T17:46:24.754Z,100527.75
2022-12-08T17:48:52.889Z,100532.03
2022-12-08T17:51:20.645Z,100528.59
2022-12-08T17:53:49.861Z,100531.16
2022-12-08T17:56:19.231Z,100530.28
2022-12-08T17:58:52.616Z,100532.84
2022-12-08T18:01:22.948Z,100523.44
2022-12-08T18:03:51.275Z,100526.81
2022-12-08T18:06:19.155Z,100522.53
2022-12-08T18:08:47.069Z,100526.69
2022-12-08T18:11:18.363Z,100533.41
2022-12-08T18:13:46.311Z,100527.31
2022-12-08T18:16:14.477Z,100539.16
2022-12-08T18:18:42.596Z,100518.63
2022-12-08T18:21:10.929Z,100539.25
2022-12-08T18:23:39.723Z,100536.53
2022-12-08T18:26:09.186Z,100540.81
2022-12-08T18:28:39.306Z,100541.84
2022-12-08T18:31:09.800Z,100530.63
2022-12-08T18:33:38.300Z,100473.41
2022-12-08T18:36:10.758Z,100539.38
2022-12-08T18:38:39.938Z,100512.53
2022-12-08T18:41:09.330Z,100530.06
2022-12-08T18:43:39.253Z,100498.34
2022-12-08T18:46:09.417Z,100548.25
2022-12-08T18:48:38.964Z,100544.84
2022-12-08T18:51:11.838Z,100546.56
2022-12-08T18:53:40.279Z,100550.19
2022-12-08T18:56:08.859Z,100561.34
2022-12-08T18:58:37.930Z,100556.38
2022-12-08T19:01:05.751Z,100562.28
2022-12-08T19:03:33.494Z,100565.84
2022-12-08T19:06:04.691Z,100566.59
2022-12-08T19:08:33.881Z,100569.25
2022-12-08T19:11:01.768Z,100560.63
2022-12-08T19:13:30.433Z,100537.41
2022-12-08T19:15:59.863Z,100560.59
2022-12-08T19:18:27.600Z,100559.09
2022-12-08T19:20:56.896Z,100558.28
2022-12-08T19:23:24.630Z,100558.28
2022-12-08T19:25:52.420Z,100563.47
2022-12-08T19:28:20.128Z,100559.16
2022-12-08T19:30:48.070Z,100560.72
2022-12-08T19:33:17.436Z,100556.34
2022-12-08T19:35:50.724Z,100570.94
2022-12-08T19:38:20.259Z,100577.72
2022-12-08T19:41:13.917Z,100576.13
2022-12-08T19:43:59.266Z,100580.44
2022-12-08T19:46:27.120Z,100576.91
2022-12-08T19:48:56.228Z,100566.81
2022-12-08T19:51:23.954Z,100529.06
2022-12-08T19:53:51.656Z,100587.53
2022-12-08T19:56:19.410Z,100568.22
2022-12-08T19:58:47.137Z,100592.56
2022-12-08T20:01:14.994Z,100596.81
2022-12-08T20:03:42.831Z,100604.78
2022-12-08T20:06:15.731Z,100598.03
2022-12-08T20:08:48.960Z,100589.84
2022-12-08T20:11:18.280Z,100582.75
2022-12-08T20:13:47.711Z,100587.66
2022-12-08T20:16:16.668Z,100594.19
2022-12-08T20:18:45.925Z,100593.66
2022-12-08T20:21:15.030Z,100595.91
2022-12-08T20:23:42.783Z,100608.38
2022-12-08T20:26:13.956Z,100602.56
2022-12-08T20:28:41.771Z,100608.38
2022-12-08T20:31:17.906Z,100549.97
2022-12-08T20:33:47.416Z,100594.59
2022-12-08T20:36:19.140Z,100598.75
2022-12-08T20:38:47.690Z,100616.22
2022-12-08T20:41:18.894Z,100615.63
2022-12-08T20:43:48.797Z,100608.09
2022-12-08T20:46:21.876Z,100621.84
2022-12-08T20:48:49.865Z,100612.63
2022-12-08T20:51:22.957Z,100627.09
2022-12-08T20:53:55.001Z,100618.59
2022-12-08T20:56:24.796Z,100617.16
2022-12-08T20:58:55.677Z,100604.41
2022-12-08T21:01:25.372Z,100623.31
2022-12-08T21:03:53.858Z,100620.16
2022-12-08T21:06:25.924Z,100617.63
2022-12-08T21:08:53.709Z,100619.38
2022-12-08T21:11:21.743Z,100613.44
2022-12-08T21:13:49.681Z,100613.41
2022-12-08T21:16:17.647Z,100615.16
2022-12-08T21:18:45.796Z,100612.50
2022-12-08T21:21:15.143Z,100607.44
2022-12-08T21:23:44.739Z,100606.53
2022-12-08T21:26:15.314Z,100603.22
2022-12-08T21:28:43.574Z,100609.16
2022-12-08T21:31:13.061Z,100598.84
2022-12-08T21:33:40.952Z,100610.13
2022-12-08T21:36:12.403Z,100611.88
2022-12-08T21:38:41.542Z,100618.91
2022-12-08T21:41:13.248Z,100621.97
2022-12-08T21:43:41.529Z,100621.53
2022-12-08T21:46:16.622Z,100608.75
2022-12-08T21:48:44.631Z,100611.47
2022-12-08T21:51:12.598Z,100616.66
2022-12-08T21:53:40.527Z,100617.56
2022-12-08T21:56:11.119Z,100617.59
2022-12-08T21:58:39.808Z,100616.72
2022-12-08T22:01:07.892Z,100623.53
2022-12-08T22:03:36.434Z,100582.28
2022-12-08T22:06:08.203Z,100619.91
2022-12-08T22:08:36.373Z,100620.91
2022-12-08T22:11:05.249Z,100619.28
2022-12-08T22:13:36.940Z,100615.59
2022-12-08T22:16:08.084Z,100610.53
2022-12-08T22:18:37.134Z,100557.59
2022-12-08T22:21:09.728Z,100615.06
2022-12-08T22:23:37.740Z,100574.81
2022-12-08T22:26:06.405Z,100609.91
2022-12-08T22:28:37.518Z,100610.00
2022-12-08T22:31:09.657Z,100571.41
2022-12-08T22:33:37.627Z,100603.16
2022-12-08T22:36:11.018Z,100604.78
2022-12-08T22:38:39.269Z,100608.16
2022-12-08T22:41:07.642Z,100610.84
2022-12-08T22:43:37.245Z,100608.00
2022-12-08T22:46:11.874Z,100607.28
2022-12-08T22:48:40.496Z,100597.50
2022-12-08T22:51:08.734Z,100609.19
2022-12-08T22:53:36.405Z,100614.56
2022-12-08T22:56:08.296Z,100625.50
2022-12-08T22:58:37.972Z,100616.06
2022-12-08T23:01:05.974Z,100626.44
2022-12-08T23:03:34.692Z,100617.75
2022-12-08T23:06:03.098Z,100627.31
2022-12-08T23:08:31.137Z,100618.75
2022-12-08T23:10:58.861Z,100630.69
2022-12-08T23:13:26.572Z,100631.88
2022-12-08T23:15:55.782Z,100616.22
2022-12-08T23:18:23.629Z,100630.13
2022-12-08T23:20:51.411Z,100625.16
2022-12-08T23:23:19.056Z,100626.91
2022-12-08T23:25:46.903Z,100628.38
2022-12-08T23:28:14.830Z,100622.38
2022-12-08T23:30:43.115Z,100635.22
2022-12-08T23:33:12.701Z,100630.13
2022-12-08T23:35:40.507Z,100613.19
2022-12-08T23:38:08.254Z,100622.78
2022-12-08T23:40:36.105Z,100630.22
2022-12-08T23:43:06.034Z,100637.25
2022-12-08T23:45:34.112Z,100637.81
2022-12-08T23:48:01.886Z,100637.31
2022-12-08T23:50:31.123Z,100636.22
2022-12-08T23:52:58.973Z,100636.50
2022-12-08T23:55:26.702Z,100633.78
2022-12-08T23:57:54.434Z,100634.81
